YZR7919 ZSNJ-ZWWW
Flight info
| Callsign | YZR7919 |
|---|---|
| Flight time | 4h 42m |
| Altitude | 34100 |
| Route | HFE B208 PADNO W210 URBIL V119 BISAL V90 LEBOM B215 NIRUV W199 ALGOT V67 NUKTI B215 DUMAM |
| Aircraft | B77L/H-SDE2E3FGILRWXY/LB2 |
Departure
| Time | 2026-05-07 01:00 |
|---|---|
| Airport | Nanjing Lukou International Airport (ZSNJ) |
Arrival
| Time | 2026-05-07 05:42 |
|---|---|
| Airport | Ürümqi Tianshan International Airport (ZWWW) |
| Time | Latitude | Longitude | Altitude | Speed | Heading |
|---|---|---|---|---|---|
| 2026-05-07 00:06 | 31.74254 | 118.87054 | 63 ft | 0 kts | 148° |
| 2026-05-07 00:48 | 31.74266 | 118.87045 | 63 ft | 2 kts | 148° |
| 2026-05-07 00:48 | 31.74279 | 118.87035 | 63 ft | 2 kts | 148° |
| 2026-05-07 00:49 | 31.74292 | 118.87026 | 63 ft | 2 kts | 148° |
| 2026-05-07 00:49 | 31.74305 | 118.87018 | 63 ft | 2 kts | 171° |
| 2026-05-07 00:49 | 31.74320 | 118.87018 | 63 ft | 2 kts | 191° |
| 2026-05-07 00:49 | 31.74335 | 118.87023 | 63 ft | 2 kts | 211° |
| 2026-05-07 00:50 | 31.74346 | 118.87034 | 63 ft | 2 kts | 231° |
| 2026-05-07 00:50 | 31.74350 | 118.87041 | 63 ft | 1 kts | 238° |
| 2026-05-07 00:50 | 31.74351 | 118.87042 | 63 ft | 0 kts | 238° |
| 2026-05-07 00:53 | 31.74346 | 118.87032 | 63 ft | 2 kts | 238° |
| 2026-05-07 00:54 | 31.74334 | 118.87009 | 63 ft | 4 kts | 238° |
| 2026-05-07 00:54 | 31.74314 | 118.86972 | 63 ft | 6 kts | 238° |
| 2026-05-07 00:54 | 31.74319 | 118.86923 | 63 ft | 7 kts | 315° |
| 2026-05-07 00:54 | 31.74362 | 118.86900 | 63 ft | 7 kts | 6° |
| 2026-05-07 00:55 | 31.74403 | 118.86940 | 63 ft | 8 kts | 56° |
| 2026-05-07 00:55 | 31.74438 | 118.87006 | 63 ft | 10 kts | 58° |
| 2026-05-07 00:55 | 31.74478 | 118.87082 | 63 ft | 11 kts | 58° |
| 2026-05-07 00:55 | 31.74523 | 118.87167 | 63 ft | 12 kts | 58° |
| 2026-05-07 00:56 | 31.74571 | 118.87257 | 63 ft | 13 kts | 58° |
| 2026-05-07 00:56 | 31.74623 | 118.87355 | 63 ft | 14 kts | 58° |
| 2026-05-07 00:56 | 31.74679 | 118.87458 | 63 ft | 15 kts | 58° |
| 2026-05-07 00:56 | 31.74736 | 118.87566 | 63 ft | 15 kts | 58° |
| 2026-05-07 00:57 | 31.74797 | 118.87679 | 63 ft | 16 kts | 58° |
| 2026-05-07 00:57 | 31.74859 | 118.87795 | 63 ft | 17 kts | 57° |
| 2026-05-07 00:57 | 31.74902 | 118.87872 | 63 ft | 9 kts | 44° |
| 2026-05-07 00:57 | 31.74968 | 118.87876 | 63 ft | 9 kts | 336° |
| 2026-05-07 00:58 | 31.75025 | 118.87835 | 63 ft | 10 kts | 328° |
| 2026-05-07 00:58 | 31.75057 | 118.87779 | 63 ft | 8 kts | 264° |
| 2026-05-07 00:58 | 31.75038 | 118.87726 | 63 ft | 0 kts | 238° |
| 2026-05-07 00:59 | 31.74741 | 118.87173 | 63 ft | 102 kts | 238° |
| 2026-05-07 00:59 | 31.74250 | 118.86258 | 63 ft | 161 kts | 239° |
| 2026-05-07 00:59 | 31.73558 | 118.84980 | 115 ft | 202 kts | 239° |
| 2026-05-07 01:00 | 31.72768 | 118.83488 | 529 ft | 224 kts | 239° |
| 2026-05-07 01:00 | 31.71992 | 118.82012 | 1673 ft | 209 kts | 239° |
| 2026-05-07 01:00 | 31.71212 | 118.80559 | 2232 ft | 217 kts | 239° |
| 2026-05-07 01:00 | 31.70381 | 118.79005 | 2549 ft | 235 kts | 239° |
| 2026-05-07 01:01 | 31.69506 | 118.77367 | 3220 ft | 239 kts | 240° |
| 2026-05-07 01:01 | 31.68603 | 118.75678 | 3761 ft | 249 kts | 240° |
| 2026-05-07 01:01 | 31.67787 | 118.73906 | 4377 ft | 252 kts | 256° |
| 2026-05-07 01:01 | 31.67533 | 118.71869 | 5008 ft | 254 kts | 270° |
| 2026-05-07 01:02 | 31.67488 | 118.69786 | 5646 ft | 258 kts | 272° |
| 2026-05-07 01:02 | 31.67463 | 118.67694 | 6284 ft | 262 kts | 272° |
| 2026-05-07 01:02 | 31.67435 | 118.65543 | 6949 ft | 264 kts | 271° |
| 2026-05-07 01:02 | 31.67403 | 118.63396 | 7616 ft | 265 kts | 271° |
| 2026-05-07 01:03 | 31.67370 | 118.61237 | 8198 ft | 270 kts | 271° |
| 2026-05-07 01:03 | 31.67337 | 118.58997 | 8603 ft | 281 kts | 270° |
| 2026-05-07 01:03 | 31.67300 | 118.56692 | 9193 ft | 285 kts | 270° |
| 2026-05-07 01:03 | 31.67263 | 118.54358 | 9875 ft | 285 kts | 269° |
| 2026-05-07 01:04 | 31.67226 | 118.52042 | 10361 ft | 293 kts | 269° |
| 2026-05-07 01:04 | 31.67187 | 118.49578 | 10650 ft | 309 kts | 269° |
| 2026-05-07 01:04 | 31.67148 | 118.47008 | 10985 ft | 324 kts | 269° |
| 2026-05-07 01:04 | 31.67107 | 118.44299 | 11308 ft | 340 kts | 269° |
| 2026-05-07 01:05 | 31.67063 | 118.41460 | 11682 ft | 354 kts | 269° |
| 2026-05-07 01:05 | 31.67017 | 118.38525 | 12066 ft | 367 kts | 269° |
| 2026-05-07 01:05 | 31.66969 | 118.35503 | 12531 ft | 378 kts | 269° |
| 2026-05-07 01:05 | 31.66918 | 118.32381 | 13265 ft | 381 kts | 268° |
| 2026-05-07 01:06 | 31.66868 | 118.29326 | 14069 ft | 382 kts | 268° |
| 2026-05-07 01:06 | 31.66816 | 118.26211 | 14817 ft | 384 kts | 268° |
| 2026-05-07 01:06 | 31.66763 | 118.23071 | 15519 ft | 389 kts | 268° |
| 2026-05-07 01:06 | 31.66708 | 118.19898 | 16218 ft | 392 kts | 268° |
| 2026-05-07 01:07 | 31.66587 | 118.16670 | 16898 ft | 396 kts | 264° |
| 2026-05-07 01:07 | 31.66293 | 118.13466 | 17553 ft | 399 kts | 264° |
| 2026-05-07 01:07 | 31.65985 | 118.10260 | 18183 ft | 403 kts | 264° |
| 2026-05-07 01:07 | 31.65669 | 118.06976 | 18797 ft | 407 kts | 264° |
| 2026-05-07 01:08 | 31.65350 | 118.03663 | 19411 ft | 411 kts | 264° |
| 2026-05-07 01:08 | 31.65029 | 118.00328 | 20032 ft | 414 kts | 264° |
| 2026-05-07 01:08 | 31.64705 | 117.96975 | 20605 ft | 418 kts | 264° |
| 2026-05-07 01:08 | 31.64378 | 117.93590 | 21181 ft | 421 kts | 264° |
| 2026-05-07 01:09 | 31.64045 | 117.90154 | 21751 ft | 425 kts | 263° |
| 2026-05-07 01:09 | 31.63711 | 117.86724 | 22265 ft | 429 kts | 263° |
| 2026-05-07 01:09 | 31.63374 | 117.83269 | 22787 ft | 432 kts | 263° |
| 2026-05-07 01:09 | 31.63030 | 117.79749 | 23320 ft | 436 kts | 263° |
| 2026-05-07 01:10 | 31.62684 | 117.76213 | 23846 ft | 439 kts | 264° |
| 2026-05-07 01:10 | 31.62335 | 117.72667 | 24397 ft | 441 kts | 264° |
| 2026-05-07 01:10 | 31.61985 | 117.69114 | 25001 ft | 442 kts | 264° |
| 2026-05-07 01:10 | 31.61666 | 117.65501 | 25539 ft | 445 kts | 267° |
| 2026-05-07 01:11 | 31.61713 | 117.61926 | 26069 ft | 447 kts | 275° |
| 2026-05-07 01:11 | 31.62211 | 117.58325 | 26623 ft | 450 kts | 283° |
| 2026-05-07 01:11 | 31.63166 | 117.54800 | 27137 ft | 455 kts | 290° |
| 2026-05-07 01:11 | 31.64553 | 117.51484 | 27645 ft | 460 kts | 298° |
| 2026-05-07 01:12 | 31.66357 | 117.48332 | 28238 ft | 463 kts | 303° |
| 2026-05-07 01:12 | 31.68231 | 117.45284 | 28807 ft | 465 kts | 303° |
| 2026-05-07 01:12 | 31.70115 | 117.42223 | 29310 ft | 468 kts | 303° |
| 2026-05-07 01:12 | 31.72027 | 117.39107 | 29901 ft | 468 kts | 303° |
| 2026-05-07 01:13 | 31.73901 | 117.36043 | 30649 ft | 465 kts | 302° |
| 2026-05-07 01:13 | 31.75781 | 117.32967 | 31495 ft | 460 kts | 302° |
| 2026-05-07 01:13 | 31.77615 | 117.29959 | 32301 ft | 455 kts | 302° |
| 2026-05-07 01:13 | 31.79556 | 117.27069 | 32953 ft | 454 kts | 306° |
| 2026-05-07 01:14 | 31.81621 | 117.24272 | 33517 ft | 454 kts | 307° |
| 2026-05-07 01:14 | 31.83701 | 117.21453 | 33991 ft | 455 kts | 306° |
| 2026-05-07 01:14 | 31.85763 | 117.18640 | 34047 ft | 456 kts | 306° |
| 2026-05-07 01:15 | 31.89861 | 117.13017 | 34051 ft | 449 kts | 306° |
| 2026-05-07 01:15 | 31.93936 | 117.07388 | 34051 ft | 453 kts | 306° |
| 2026-05-07 01:16 | 31.98075 | 117.01650 | 34055 ft | 453 kts | 306° |
| 2026-05-07 01:16 | 32.02181 | 116.95966 | 34053 ft | 454 kts | 306° |
| 2026-05-07 01:17 | 32.06269 | 116.90304 | 34060 ft | 454 kts | 306° |
| 2026-05-07 01:17 | 32.10328 | 116.84670 | 34065 ft | 454 kts | 305° |
| 2026-05-07 01:18 | 32.14427 | 116.78971 | 34057 ft | 451 kts | 306° |
| 2026-05-07 01:18 | 32.18481 | 116.73322 | 34062 ft | 455 kts | 306° |
| 2026-05-07 01:19 | 32.22520 | 116.67560 | 34063 ft | 454 kts | 305° |
| 2026-05-07 01:19 | 32.26549 | 116.61746 | 34067 ft | 455 kts | 305° |
| 2026-05-07 01:20 | 32.30556 | 116.55962 | 34066 ft | 456 kts | 305° |
| 2026-05-07 01:20 | 32.34547 | 116.50198 | 34074 ft | 452 kts | 305° |
| 2026-05-07 01:21 | 32.38540 | 116.44419 | 34074 ft | 457 kts | 304° |
| 2026-05-07 01:21 | 32.42524 | 116.38647 | 34072 ft | 453 kts | 305° |
| 2026-05-07 01:22 | 32.46515 | 116.32856 | 34087 ft | 454 kts | 304° |
| 2026-05-07 01:22 | 32.50490 | 116.27080 | 34086 ft | 455 kts | 304° |
| 2026-05-07 01:23 | 32.54491 | 116.21259 | 34093 ft | 455 kts | 304° |
| 2026-05-07 01:23 | 32.58502 | 116.15473 | 34090 ft | 455 kts | 306° |
| 2026-05-07 01:24 | 32.62583 | 116.09748 | 34091 ft | 455 kts | 306° |
| 2026-05-07 01:24 | 32.66634 | 116.04052 | 34095 ft | 453 kts | 305° |
| 2026-05-07 01:25 | 32.70707 | 115.98309 | 34096 ft | 452 kts | 306° |
| 2026-05-07 01:25 | 32.74771 | 115.92566 | 34093 ft | 456 kts | 305° |
| 2026-05-07 01:26 | 32.78817 | 115.86840 | 34096 ft | 453 kts | 305° |
| 2026-05-07 01:26 | 32.82851 | 115.81121 | 34103 ft | 452 kts | 305° |
| 2026-05-07 01:27 | 32.86891 | 115.75383 | 34104 ft | 452 kts | 305° |
| 2026-05-07 01:27 | 32.90975 | 115.69685 | 34100 ft | 452 kts | 307° |
| 2026-05-07 01:28 | 32.95103 | 115.64067 | 34104 ft | 452 kts | 307° |
| 2026-05-07 01:28 | 32.99244 | 115.58414 | 34116 ft | 453 kts | 307° |
| 2026-05-07 01:29 | 33.03359 | 115.52782 | 34121 ft | 452 kts | 307° |
| 2026-05-07 01:29 | 33.07492 | 115.47111 | 34128 ft | 454 kts | 307° |
| 2026-05-07 01:30 | 33.11610 | 115.41454 | 34135 ft | 450 kts | 307° |
| 2026-05-07 01:30 | 33.15703 | 115.35819 | 34142 ft | 451 kts | 307° |
| 2026-05-07 01:31 | 33.19817 | 115.30148 | 34157 ft | 451 kts | 306° |
| 2026-05-07 01:31 | 33.23906 | 115.24502 | 34163 ft | 449 kts | 306° |
| 2026-05-07 01:32 | 33.27982 | 115.18864 | 34160 ft | 448 kts | 306° |
| 2026-05-07 01:32 | 33.32079 | 115.13187 | 34166 ft | 449 kts | 306° |
| 2026-05-07 01:33 | 33.36119 | 115.07584 | 34170 ft | 446 kts | 306° |
| 2026-05-07 01:33 | 33.40174 | 115.01949 | 34178 ft | 447 kts | 306° |
| 2026-05-07 01:34 | 33.44240 | 114.96289 | 34172 ft | 447 kts | 306° |
| 2026-05-07 01:34 | 33.48267 | 114.90677 | 34178 ft | 447 kts | 306° |
| 2026-05-07 01:35 | 33.52287 | 114.85064 | 34181 ft | 445 kts | 306° |
| 2026-05-07 01:35 | 33.56323 | 114.79421 | 34186 ft | 446 kts | 306° |
| 2026-05-07 01:36 | 33.60366 | 114.73779 | 34185 ft | 445 kts | 307° |
| 2026-05-07 01:36 | 33.64477 | 114.68220 | 34186 ft | 446 kts | 307° |
| 2026-05-07 01:37 | 33.69025 | 114.63055 | 34197 ft | 452 kts | 316° |
| 2026-05-07 01:37 | 33.73950 | 114.58355 | 34196 ft | 452 kts | 316° |
| 2026-05-07 01:38 | 33.78867 | 114.53654 | 34195 ft | 450 kts | 316° |
| 2026-05-07 01:38 | 33.83777 | 114.48960 | 34193 ft | 450 kts | 317° |
| 2026-05-07 01:39 | 33.88707 | 114.44331 | 34199 ft | 451 kts | 317° |
| 2026-05-07 01:39 | 33.93647 | 114.39683 | 34199 ft | 450 kts | 316° |
| 2026-05-07 01:40 | 33.98577 | 114.35036 | 34206 ft | 451 kts | 316° |
| 2026-05-07 01:40 | 34.03495 | 114.30390 | 34221 ft | 449 kts | 316° |
| 2026-05-07 01:41 | 34.08399 | 114.25750 | 34224 ft | 449 kts | 315° |
| 2026-05-07 01:41 | 34.13336 | 114.21070 | 34223 ft | 449 kts | 316° |
| 2026-05-07 01:42 | 34.18262 | 114.16396 | 34222 ft | 447 kts | 316° |
| 2026-05-07 01:42 | 34.23170 | 114.11729 | 34228 ft | 447 kts | 316° |
| 2026-05-07 01:43 | 34.28093 | 114.07040 | 34228 ft | 449 kts | 315° |
| 2026-05-07 01:43 | 34.32955 | 114.02404 | 34238 ft | 448 kts | 315° |
| 2026-05-07 01:44 | 34.37856 | 113.97722 | 34235 ft | 449 kts | 315° |
| 2026-05-07 01:44 | 34.42721 | 113.93070 | 34236 ft | 446 kts | 315° |
| 2026-05-07 01:45 | 34.47595 | 113.88400 | 34236 ft | 448 kts | 315° |
| 2026-05-07 01:45 | 34.52867 | 113.84328 | 34234 ft | 455 kts | 329° |
| 2026-05-07 01:46 | 34.58959 | 113.81924 | 34241 ft | 468 kts | 337° |
| 2026-05-07 01:46 | 34.65242 | 113.79877 | 34243 ft | 468 kts | 337° |
| 2026-05-07 01:47 | 34.71540 | 113.77812 | 34233 ft | 466 kts | 337° |
| 2026-05-07 01:47 | 34.77785 | 113.75752 | 34234 ft | 467 kts | 337° |
| 2026-05-07 01:48 | 34.84031 | 113.73686 | 34239 ft | 466 kts | 337° |
| 2026-05-07 01:48 | 34.90220 | 113.71373 | 34243 ft | 460 kts | 332° |
| 2026-05-07 01:49 | 34.96230 | 113.68657 | 34237 ft | 459 kts | 332° |
| 2026-05-07 01:49 | 35.02219 | 113.65975 | 34242 ft | 457 kts | 332° |
| 2026-05-07 01:50 | 35.08150 | 113.63335 | 34241 ft | 456 kts | 332° |
| 2026-05-07 01:50 | 35.14148 | 113.60671 | 34241 ft | 458 kts | 332° |
| 2026-05-07 01:51 | 35.20125 | 113.58019 | 34247 ft | 456 kts | 332° |
| 2026-05-07 01:51 | 35.26108 | 113.55363 | 34245 ft | 457 kts | 332° |
| 2026-05-07 01:52 | 35.32089 | 113.52705 | 34259 ft | 454 kts | 332° |
| 2026-05-07 01:52 | 35.38052 | 113.50049 | 34268 ft | 458 kts | 332° |
| 2026-05-07 01:53 | 35.43976 | 113.47413 | 34273 ft | 450 kts | 331° |
| 2026-05-07 01:53 | 35.49616 | 113.44174 | 34286 ft | 445 kts | 319° |
| 2026-05-07 01:54 | 35.54194 | 113.39376 | 34286 ft | 425 kts | 305° |
| 2026-05-07 01:54 | 35.57493 | 113.33418 | 34309 ft | 417 kts | 292° |
| 2026-05-07 01:55 | 35.59373 | 113.26829 | 34313 ft | 405 kts | 279° |
| 2026-05-07 01:55 | 35.59835 | 113.19946 | 34314 ft | 407 kts | 268° |
| 2026-05-07 01:56 | 35.58872 | 113.13108 | 34310 ft | 409 kts | 255° |
| 2026-05-07 01:56 | 35.56502 | 113.06712 | 34309 ft | 421 kts | 243° |
| 2026-05-07 01:57 | 35.52664 | 113.01182 | 34297 ft | 430 kts | 227° |
| 2026-05-07 01:57 | 35.50203 | 112.99086 | 34302 ft | 444 kts | 218° |
| 2026-05-07 01:57 | 35.47365 | 112.97417 | 34299 ft | 453 kts | 213° |
| 2026-05-07 01:58 | 35.42086 | 112.93489 | 34297 ft | 443 kts | 226° |
| 2026-05-07 01:58 | 35.37678 | 112.88356 | 34291 ft | 431 kts | 234° |
| 2026-05-07 01:59 | 35.33895 | 112.82711 | 34299 ft | 429 kts | 239° |
| 2026-05-07 01:59 | 35.30449 | 112.76793 | 34297 ft | 424 kts | 242° |
| 2026-05-07 02:00 | 35.27179 | 112.70760 | 34297 ft | 427 kts | 242° |
| 2026-05-07 02:00 | 35.24004 | 112.64674 | 34296 ft | 424 kts | 243° |
| 2026-05-07 02:01 | 35.20878 | 112.58577 | 34294 ft | 425 kts | 243° |
| 2026-05-07 02:01 | 35.17788 | 112.52424 | 34290 ft | 425 kts | 243° |
| 2026-05-07 02:02 | 35.14722 | 112.46264 | 34282 ft | 424 kts | 243° |
| 2026-05-07 02:02 | 35.11665 | 112.40119 | 34279 ft | 426 kts | 243° |
| 2026-05-07 02:03 | 35.08603 | 112.33973 | 34279 ft | 424 kts | 243° |
| 2026-05-07 02:03 | 35.05533 | 112.27813 | 34280 ft | 428 kts | 243° |
| 2026-05-07 02:04 | 35.02455 | 112.21654 | 34276 ft | 424 kts | 243° |
| 2026-05-07 02:04 | 34.99375 | 112.15494 | 34282 ft | 430 kts | 243° |
| 2026-05-07 02:05 | 34.96273 | 112.09308 | 34282 ft | 424 kts | 242° |
| 2026-05-07 02:05 | 34.93183 | 112.03152 | 34289 ft | 428 kts | 243° |
| 2026-05-07 02:06 | 34.90087 | 111.96997 | 34285 ft | 427 kts | 243° |
| 2026-05-07 02:06 | 34.86983 | 111.90833 | 34284 ft | 425 kts | 243° |
| 2026-05-07 02:07 | 34.83935 | 111.84699 | 34279 ft | 427 kts | 243° |
| 2026-05-07 02:07 | 34.79319 | 111.75422 | 34282 ft | 429 kts | 243° |
| 2026-05-07 02:08 | 34.76228 | 111.69228 | 34280 ft | 427 kts | 243° |
| 2026-05-07 02:08 | 34.73153 | 111.63078 | 34288 ft | 428 kts | 243° |
| 2026-05-07 02:09 | 34.70050 | 111.56881 | 34298 ft | 430 kts | 242° |
| 2026-05-07 02:09 | 34.66961 | 111.50726 | 34296 ft | 428 kts | 242° |
| 2026-05-07 02:10 | 34.63860 | 111.44555 | 34302 ft | 432 kts | 242° |
| 2026-05-07 02:10 | 34.60719 | 111.38319 | 34311 ft | 429 kts | 243° |
| 2026-05-07 02:11 | 34.57619 | 111.32172 | 34328 ft | 431 kts | 242° |
| 2026-05-07 02:11 | 34.54481 | 111.25961 | 34337 ft | 430 kts | 242° |
| 2026-05-07 02:12 | 34.51355 | 111.19785 | 34348 ft | 433 kts | 242° |
| 2026-05-07 02:12 | 34.48226 | 111.13618 | 34344 ft | 429 kts | 242° |
| 2026-05-07 02:13 | 34.45068 | 111.07396 | 34344 ft | 436 kts | 241° |
| 2026-05-07 02:13 | 34.41931 | 111.01215 | 34339 ft | 431 kts | 242° |
| 2026-05-07 02:14 | 34.38827 | 110.94990 | 34340 ft | 434 kts | 242° |
| 2026-05-07 02:14 | 34.35712 | 110.88758 | 34339 ft | 433 kts | 242° |
| 2026-05-07 02:15 | 34.32566 | 110.82479 | 34345 ft | 436 kts | 242° |
| 2026-05-07 02:15 | 34.29433 | 110.76240 | 34347 ft | 433 kts | 242° |
| 2026-05-07 02:16 | 34.26289 | 110.69988 | 34349 ft | 437 kts | 242° |
| 2026-05-07 02:16 | 34.23157 | 110.63775 | 34352 ft | 434 kts | 242° |
| 2026-05-07 02:17 | 34.19982 | 110.57482 | 34355 ft | 438 kts | 242° |
| 2026-05-07 02:17 | 34.16840 | 110.51270 | 34354 ft | 436 kts | 242° |
| 2026-05-07 02:18 | 34.13662 | 110.44995 | 34360 ft | 441 kts | 242° |
| 2026-05-07 02:18 | 34.10498 | 110.38695 | 34355 ft | 437 kts | 243° |
| 2026-05-07 02:19 | 34.07359 | 110.32444 | 34374 ft | 440 kts | 242° |
| 2026-05-07 02:19 | 34.04166 | 110.26098 | 34377 ft | 441 kts | 242° |
| 2026-05-07 02:20 | 34.01001 | 110.19823 | 34372 ft | 441 kts | 242° |
| 2026-05-07 02:20 | 33.97808 | 110.13499 | 34377 ft | 444 kts | 242° |
| 2026-05-07 02:21 | 33.94611 | 110.07184 | 34374 ft | 443 kts | 242° |
| 2026-05-07 02:21 | 33.91701 | 110.00697 | 34372 ft | 439 kts | 251° |
| 2026-05-07 02:22 | 33.90250 | 109.93655 | 34374 ft | 435 kts | 265° |
| 2026-05-07 02:22 | 33.90418 | 109.86402 | 34374 ft | 434 kts | 279° |
| 2026-05-07 02:23 | 33.92132 | 109.79479 | 34381 ft | 437 kts | 289° |
| 2026-05-07 02:23 | 33.94359 | 109.72685 | 34384 ft | 436 kts | 289° |
| 2026-05-07 02:24 | 33.96574 | 109.65872 | 34388 ft | 437 kts | 289° |
| 2026-05-07 02:24 | 33.98772 | 109.59066 | 34390 ft | 436 kts | 289° |
| 2026-05-07 02:25 | 34.00946 | 109.52301 | 34395 ft | 437 kts | 289° |
| 2026-05-07 02:25 | 34.03128 | 109.45489 | 34400 ft | 437 kts | 289° |
| 2026-05-07 02:26 | 34.05317 | 109.38637 | 34402 ft | 437 kts | 289° |
| 2026-05-07 02:26 | 34.07488 | 109.31824 | 34407 ft | 437 kts | 289° |
| 2026-05-07 02:27 | 34.09670 | 109.24958 | 34415 ft | 435 kts | 289° |
| 2026-05-07 02:27 | 34.11826 | 109.18160 | 34415 ft | 435 kts | 289° |
| 2026-05-07 02:28 | 34.13981 | 109.11350 | 34415 ft | 438 kts | 289° |
| 2026-05-07 02:28 | 34.16140 | 109.04510 | 34412 ft | 435 kts | 289° |
| 2026-05-07 02:29 | 34.18322 | 108.97663 | 34404 ft | 436 kts | 291° |
| 2026-05-07 02:29 | 34.21474 | 108.91379 | 34405 ft | 441 kts | 306° |
| 2026-05-07 02:30 | 34.25996 | 108.86271 | 34404 ft | 452 kts | 320° |
| 2026-05-07 02:30 | 34.31625 | 108.82785 | 34392 ft | 465 kts | 335° |
| 2026-05-07 02:31 | 34.38003 | 108.80948 | 34395 ft | 471 kts | 342° |
| 2026-05-07 02:31 | 34.44469 | 108.79327 | 34398 ft | 471 kts | 342° |
| 2026-05-07 02:32 | 34.50428 | 108.77752 | 34396 ft | 469 kts | 341° |
| 2026-05-07 02:32 | 34.56842 | 108.76011 | 34405 ft | 471 kts | 341° |
| 2026-05-07 02:33 | 34.63197 | 108.74275 | 34416 ft | 471 kts | 341° |
| 2026-05-07 02:33 | 34.69604 | 108.72494 | 34410 ft | 469 kts | 338° |
| 2026-05-07 02:34 | 34.75505 | 108.69425 | 34420 ft | 453 kts | 322° |
| 2026-05-07 02:34 | 34.80294 | 108.64645 | 34418 ft | 441 kts | 308° |
| 2026-05-07 02:35 | 34.84429 | 108.59104 | 34411 ft | 440 kts | 307° |
| 2026-05-07 02:35 | 34.88516 | 108.53584 | 34422 ft | 441 kts | 307° |
| 2026-05-07 02:36 | 34.92631 | 108.48019 | 34422 ft | 440 kts | 307° |
| 2026-05-07 02:36 | 34.96752 | 108.42436 | 34434 ft | 442 kts | 307° |
| 2026-05-07 02:37 | 35.00854 | 108.36869 | 34434 ft | 440 kts | 307° |
| 2026-05-07 02:37 | 35.04971 | 108.31273 | 34447 ft | 441 kts | 307° |
| 2026-05-07 02:38 | 35.09042 | 108.25732 | 34453 ft | 440 kts | 307° |
| 2026-05-07 02:38 | 35.13109 | 108.20185 | 34449 ft | 438 kts | 307° |
| 2026-05-07 02:39 | 35.17158 | 108.14655 | 34447 ft | 438 kts | 307° |
| 2026-05-07 02:39 | 35.21237 | 108.09074 | 34445 ft | 438 kts | 306° |
| 2026-05-07 02:40 | 35.25309 | 108.03494 | 34450 ft | 438 kts | 307° |
| 2026-05-07 02:40 | 35.29359 | 107.97935 | 34447 ft | 438 kts | 307° |
| 2026-05-07 02:41 | 35.33387 | 107.92397 | 34449 ft | 436 kts | 306° |
| 2026-05-07 02:41 | 35.37457 | 107.86803 | 34452 ft | 437 kts | 307° |
| 2026-05-07 02:42 | 35.41469 | 107.81302 | 34454 ft | 437 kts | 307° |
| 2026-05-07 02:42 | 35.45538 | 107.75722 | 34452 ft | 437 kts | 308° |
| 2026-05-07 02:43 | 35.50307 | 107.70938 | 34451 ft | 449 kts | 322° |
| 2026-05-07 02:43 | 35.56084 | 107.67870 | 34447 ft | 462 kts | 338° |
| 2026-05-07 02:44 | 35.62406 | 107.66196 | 34455 ft | 468 kts | 341° |
| 2026-05-07 02:44 | 35.68665 | 107.64225 | 34447 ft | 455 kts | 331° |
| 2026-05-07 02:45 | 35.74133 | 107.60453 | 34445 ft | 440 kts | 316° |
| 2026-05-07 02:45 | 35.78382 | 107.55204 | 34439 ft | 431 kts | 302° |
| 2026-05-07 02:46 | 35.81279 | 107.48910 | 34436 ft | 419 kts | 289° |
| 2026-05-07 02:46 | 35.82970 | 107.42020 | 34436 ft | 423 kts | 283° |
| 2026-05-07 02:47 | 35.84501 | 107.35108 | 34435 ft | 418 kts | 284° |
| 2026-05-07 02:47 | 35.86039 | 107.28213 | 34462 ft | 418 kts | 284° |
| 2026-05-07 02:48 | 35.87588 | 107.21259 | 34469 ft | 418 kts | 283° |
| 2026-05-07 02:48 | 35.89118 | 107.14381 | 34466 ft | 418 kts | 284° |
| 2026-05-07 02:49 | 35.90626 | 107.07451 | 34471 ft | 418 kts | 282° |
| 2026-05-07 02:49 | 35.92043 | 107.00526 | 34470 ft | 420 kts | 283° |
| 2026-05-07 02:50 | 35.93464 | 106.93578 | 34472 ft | 417 kts | 282° |
| 2026-05-07 02:50 | 35.94888 | 106.86611 | 34475 ft | 418 kts | 282° |
| 2026-05-07 02:51 | 35.96303 | 106.79672 | 34470 ft | 417 kts | 283° |
| 2026-05-07 02:51 | 35.97718 | 106.72716 | 34474 ft | 417 kts | 283° |
| 2026-05-07 02:52 | 35.99133 | 106.65738 | 34476 ft | 419 kts | 283° |
| 2026-05-07 02:52 | 36.00546 | 106.58746 | 34476 ft | 420 kts | 283° |
| 2026-05-07 02:53 | 36.01955 | 106.51756 | 34482 ft | 420 kts | 282° |
| 2026-05-07 02:53 | 36.03362 | 106.44753 | 34481 ft | 420 kts | 282° |
| 2026-05-07 02:54 | 36.04773 | 106.37704 | 34479 ft | 419 kts | 282° |
| 2026-05-07 02:54 | 36.06177 | 106.30669 | 34495 ft | 423 kts | 282° |
| 2026-05-07 02:55 | 36.07571 | 106.23663 | 34497 ft | 421 kts | 282° |
| 2026-05-07 02:55 | 36.09050 | 106.16649 | 34500 ft | 422 kts | 283° |
| 2026-05-07 02:56 | 36.10620 | 106.09652 | 34497 ft | 422 kts | 283° |
| 2026-05-07 02:56 | 36.12184 | 106.02631 | 34503 ft | 423 kts | 283° |
| 2026-05-07 02:57 | 36.13736 | 105.95622 | 34500 ft | 421 kts | 283° |
| 2026-05-07 02:57 | 36.15280 | 105.88621 | 34499 ft | 426 kts | 283° |
| 2026-05-07 02:58 | 36.16828 | 105.81574 | 34491 ft | 423 kts | 283° |
| 2026-05-07 02:58 | 36.18365 | 105.74556 | 34493 ft | 424 kts | 283° |
| 2026-05-07 02:59 | 36.19898 | 105.67531 | 34493 ft | 426 kts | 283° |
| 2026-05-07 02:59 | 36.21427 | 105.60507 | 34485 ft | 422 kts | 283° |
| 2026-05-07 03:00 | 36.22951 | 105.53479 | 34485 ft | 423 kts | 284° |
| 2026-05-07 03:00 | 36.24472 | 105.46446 | 34484 ft | 424 kts | 283° |
| 2026-05-07 03:01 | 36.25993 | 105.39392 | 34482 ft | 425 kts | 283° |
| 2026-05-07 03:01 | 36.27517 | 105.32299 | 34495 ft | 422 kts | 283° |
| 2026-05-07 03:02 | 36.29018 | 105.25289 | 34489 ft | 425 kts | 283° |
| 2026-05-07 03:02 | 36.30525 | 105.18233 | 34493 ft | 425 kts | 283° |
| 2026-05-07 03:03 | 36.32032 | 105.11192 | 34493 ft | 421 kts | 283° |
| 2026-05-07 03:03 | 36.33549 | 105.04086 | 34499 ft | 425 kts | 283° |
| 2026-05-07 03:04 | 36.35051 | 104.97028 | 34505 ft | 425 kts | 283° |
| 2026-05-07 03:04 | 36.36558 | 104.89923 | 34501 ft | 424 kts | 283° |
| 2026-05-07 03:05 | 36.38056 | 104.82840 | 34498 ft | 424 kts | 283° |
| 2026-05-07 03:05 | 36.39545 | 104.75776 | 34500 ft | 425 kts | 283° |
| 2026-05-07 03:06 | 36.41033 | 104.68693 | 34497 ft | 425 kts | 283° |
| 2026-05-07 03:06 | 36.42516 | 104.61615 | 34495 ft | 422 kts | 283° |
| 2026-05-07 03:07 | 36.43996 | 104.54527 | 34488 ft | 425 kts | 283° |
| 2026-05-07 03:07 | 36.45469 | 104.47453 | 34481 ft | 422 kts | 283° |
| 2026-05-07 03:08 | 36.46936 | 104.40381 | 34477 ft | 422 kts | 283° |
| 2026-05-07 03:08 | 36.48640 | 104.33388 | 34486 ft | 426 kts | 290° |
| 2026-05-07 03:09 | 36.51341 | 104.26826 | 34492 ft | 427 kts | 294° |
| 2026-05-07 03:09 | 36.54133 | 104.20312 | 34493 ft | 431 kts | 294° |
| 2026-05-07 03:10 | 36.56917 | 104.13805 | 34485 ft | 425 kts | 296° |
| 2026-05-07 03:10 | 36.60478 | 104.07851 | 34493 ft | 437 kts | 309° |
| 2026-05-07 03:11 | 36.65316 | 104.03152 | 34483 ft | 449 kts | 323° |
| 2026-05-07 03:11 | 36.71180 | 104.00191 | 34484 ft | 464 kts | 338° |
| 2026-05-07 03:12 | 36.77533 | 103.98598 | 34490 ft | 471 kts | 341° |
| 2026-05-07 03:12 | 36.84029 | 103.97018 | 34494 ft | 470 kts | 340° |
| 2026-05-07 03:13 | 36.90387 | 103.95448 | 34512 ft | 467 kts | 340° |
| 2026-05-07 03:13 | 36.96806 | 103.93843 | 34500 ft | 470 kts | 340° |
| 2026-05-07 03:14 | 37.03161 | 103.92248 | 34519 ft | 467 kts | 340° |
| 2026-05-07 03:15 | 37.12785 | 103.89819 | 34511 ft | 467 kts | 340° |
| 2026-05-07 03:15 | 37.19172 | 103.88200 | 34505 ft | 466 kts | 340° |
| 2026-05-07 03:16 | 37.25486 | 103.86595 | 34510 ft | 467 kts | 340° |
| 2026-05-07 03:16 | 37.31821 | 103.84808 | 34489 ft | 456 kts | 333° |
| 2026-05-07 03:17 | 37.37687 | 103.81809 | 34483 ft | 456 kts | 329° |
| 2026-05-07 03:17 | 37.43452 | 103.78693 | 34482 ft | 449 kts | 329° |
| 2026-05-07 03:18 | 37.49223 | 103.75567 | 34482 ft | 450 kts | 329° |
| 2026-05-07 03:18 | 37.54963 | 103.72452 | 34490 ft | 453 kts | 329° |
| 2026-05-07 03:19 | 37.60738 | 103.69318 | 34479 ft | 448 kts | 329° |
| 2026-05-07 03:19 | 37.66476 | 103.66193 | 34481 ft | 454 kts | 328° |
| 2026-05-07 03:20 | 37.72248 | 103.63052 | 34475 ft | 447 kts | 328° |
| 2026-05-07 03:20 | 37.77963 | 103.59931 | 34464 ft | 449 kts | 329° |
| 2026-05-07 03:21 | 37.83722 | 103.56782 | 34453 ft | 450 kts | 328° |
| 2026-05-07 03:21 | 37.89433 | 103.53655 | 34462 ft | 448 kts | 328° |
| 2026-05-07 03:22 | 37.95176 | 103.50504 | 34453 ft | 450 kts | 328° |
| 2026-05-07 03:22 | 38.00892 | 103.47364 | 34449 ft | 448 kts | 328° |
| 2026-05-07 03:23 | 38.06612 | 103.44215 | 34432 ft | 447 kts | 328° |
| 2026-05-07 03:23 | 38.12326 | 103.41064 | 34438 ft | 448 kts | 328° |
| 2026-05-07 03:24 | 38.18038 | 103.37909 | 34437 ft | 449 kts | 328° |
| 2026-05-07 03:24 | 38.23756 | 103.34745 | 34436 ft | 447 kts | 328° |
| 2026-05-07 03:25 | 38.29417 | 103.31609 | 34445 ft | 445 kts | 328° |
| 2026-05-07 03:25 | 38.35148 | 103.28426 | 34441 ft | 446 kts | 328° |
| 2026-05-07 03:26 | 38.40820 | 103.25272 | 34436 ft | 443 kts | 328° |
| 2026-05-07 03:26 | 38.46501 | 103.22105 | 34440 ft | 449 kts | 328° |
| 2026-05-07 03:27 | 38.52186 | 103.18934 | 34437 ft | 446 kts | 328° |
| 2026-05-07 03:27 | 38.57859 | 103.15761 | 34439 ft | 448 kts | 328° |
| 2026-05-07 03:28 | 38.63557 | 103.12573 | 34436 ft | 445 kts | 328° |
| 2026-05-07 03:28 | 38.69258 | 103.09374 | 34432 ft | 444 kts | 328° |
| 2026-05-07 03:29 | 38.74925 | 103.06188 | 34434 ft | 445 kts | 328° |
| 2026-05-07 03:29 | 38.80577 | 103.03007 | 34433 ft | 443 kts | 328° |
| 2026-05-07 03:30 | 38.86245 | 102.99809 | 34434 ft | 448 kts | 328° |
| 2026-05-07 03:30 | 38.91934 | 102.96596 | 34438 ft | 445 kts | 328° |
| 2026-05-07 03:31 | 38.97620 | 102.93379 | 34428 ft | 446 kts | 328° |
| 2026-05-07 03:31 | 39.03272 | 102.90176 | 34431 ft | 442 kts | 328° |
| 2026-05-07 03:32 | 39.08953 | 102.86948 | 34429 ft | 448 kts | 328° |
| 2026-05-07 03:32 | 39.14642 | 102.83714 | 34429 ft | 444 kts | 329° |
| 2026-05-07 03:33 | 39.20258 | 102.80512 | 34423 ft | 443 kts | 328° |
| 2026-05-07 03:33 | 39.25923 | 102.77277 | 34423 ft | 447 kts | 328° |
| 2026-05-07 03:34 | 39.31585 | 102.74038 | 34425 ft | 448 kts | 329° |
| 2026-05-07 03:34 | 39.37253 | 102.70792 | 34420 ft | 444 kts | 329° |
| 2026-05-07 03:35 | 39.43105 | 102.67981 | 34417 ft | 456 kts | 339° |
| 2026-05-07 03:35 | 39.49537 | 102.67192 | 34420 ft | 474 kts | 352° |
| 2026-05-07 03:36 | 39.56117 | 102.67335 | 34422 ft | 475 kts | 352° |
| 2026-05-07 03:36 | 39.62710 | 102.67470 | 34422 ft | 474 kts | 352° |
| 2026-05-07 03:37 | 39.69218 | 102.67586 | 34422 ft | 470 kts | 352° |
| 2026-05-07 03:37 | 39.75795 | 102.67693 | 34419 ft | 471 kts | 352° |
| 2026-05-07 03:38 | 39.82314 | 102.67796 | 34428 ft | 470 kts | 352° |
| 2026-05-07 03:38 | 39.88869 | 102.67895 | 34418 ft | 472 kts | 352° |
| 2026-05-07 03:39 | 39.95396 | 102.67997 | 34423 ft | 470 kts | 351° |
| 2026-05-07 03:39 | 40.01940 | 102.68095 | 34420 ft | 468 kts | 352° |
| 2026-05-07 03:40 | 40.08478 | 102.68195 | 34423 ft | 470 kts | 352° |
| 2026-05-07 03:40 | 40.14988 | 102.68292 | 34424 ft | 468 kts | 352° |
| 2026-05-07 03:41 | 40.21462 | 102.68391 | 34423 ft | 471 kts | 352° |
| 2026-05-07 03:41 | 40.28037 | 102.68489 | 34420 ft | 469 kts | 352° |
| 2026-05-07 03:42 | 40.34518 | 102.68590 | 34421 ft | 468 kts | 352° |
| 2026-05-07 03:42 | 40.41086 | 102.68687 | 34417 ft | 471 kts | 353° |
| 2026-05-07 03:43 | 40.47664 | 102.68790 | 34413 ft | 469 kts | 353° |
| 2026-05-07 03:43 | 40.54192 | 102.68889 | 34413 ft | 468 kts | 353° |
| 2026-05-07 03:44 | 40.60697 | 102.68990 | 34415 ft | 468 kts | 353° |
| 2026-05-07 03:44 | 40.67232 | 102.69088 | 34423 ft | 472 kts | 353° |
| 2026-05-07 03:45 | 40.73779 | 102.69190 | 34412 ft | 467 kts | 353° |
| 2026-05-07 03:45 | 40.80303 | 102.69290 | 34407 ft | 469 kts | 353° |
| 2026-05-07 03:46 | 40.86831 | 102.69391 | 34360 ft | 471 kts | 353° |
| 2026-05-07 03:46 | 40.93351 | 102.69491 | 34411 ft | 471 kts | 353° |
| 2026-05-07 03:47 | 40.99925 | 102.69594 | 34445 ft | 469 kts | 353° |
| 2026-05-07 03:47 | 41.06455 | 102.69694 | 34409 ft | 473 kts | 354° |
| 2026-05-07 03:48 | 41.12996 | 102.69797 | 34401 ft | 469 kts | 354° |
| 2026-05-07 03:48 | 41.19544 | 102.69898 | 34396 ft | 473 kts | 354° |
| 2026-05-07 03:49 | 41.26062 | 102.70002 | 34381 ft | 466 kts | 354° |
| 2026-05-07 03:49 | 41.32546 | 102.69531 | 34388 ft | 462 kts | 343° |
| 2026-05-07 03:50 | 41.38528 | 102.66836 | 34382 ft | 446 kts | 328° |
| 2026-05-07 03:50 | 41.43551 | 102.62206 | 34353 ft | 442 kts | 314° |
| 2026-05-07 03:51 | 41.47422 | 102.55956 | 34355 ft | 437 kts | 300° |
| 2026-05-07 03:51 | 41.49960 | 102.48608 | 34361 ft | 438 kts | 291° |
| 2026-05-07 03:52 | 41.52134 | 102.40985 | 34347 ft | 436 kts | 290° |
| 2026-05-07 03:52 | 41.54293 | 102.33386 | 34352 ft | 440 kts | 290° |
| 2026-05-07 03:53 | 41.56462 | 102.25744 | 34353 ft | 439 kts | 290° |
| 2026-05-07 03:53 | 41.58603 | 102.18175 | 34340 ft | 442 kts | 290° |
| 2026-05-07 03:54 | 41.60785 | 102.10446 | 34338 ft | 438 kts | 290° |
| 2026-05-07 03:54 | 41.62928 | 102.02830 | 34329 ft | 446 kts | 290° |
| 2026-05-07 03:55 | 41.65107 | 101.95061 | 34310 ft | 445 kts | 290° |
| 2026-05-07 03:55 | 41.67273 | 101.87318 | 34325 ft | 444 kts | 290° |
| 2026-05-07 03:56 | 41.69447 | 101.79518 | 34331 ft | 445 kts | 290° |
| 2026-05-07 03:56 | 41.71618 | 101.71709 | 34330 ft | 448 kts | 290° |
| 2026-05-07 03:57 | 41.73806 | 101.63811 | 34304 ft | 452 kts | 290° |
| 2026-05-07 03:57 | 41.75971 | 101.55975 | 34328 ft | 450 kts | 290° |
| 2026-05-07 03:58 | 41.78136 | 101.48113 | 34314 ft | 452 kts | 290° |
| 2026-05-07 03:58 | 41.80313 | 101.40181 | 34305 ft | 451 kts | 290° |
| 2026-05-07 03:59 | 41.82478 | 101.32268 | 34334 ft | 452 kts | 289° |
| 2026-05-07 03:59 | 41.84523 | 101.24248 | 34312 ft | 456 kts | 283° |
| 2026-05-07 04:00 | 41.85234 | 101.15849 | 34338 ft | 453 kts | 272° |
| 2026-05-07 04:00 | 41.85468 | 101.07385 | 34319 ft | 456 kts | 272° |
| 2026-05-07 04:01 | 41.85682 | 100.98933 | 34318 ft | 455 kts | 272° |
| 2026-05-07 04:01 | 41.85886 | 100.90392 | 34308 ft | 459 kts | 272° |
| 2026-05-07 04:02 | 41.86081 | 100.81873 | 34311 ft | 458 kts | 272° |
| 2026-05-07 04:02 | 41.86268 | 100.73305 | 34309 ft | 458 kts | 272° |
| 2026-05-07 04:03 | 41.86448 | 100.64790 | 34329 ft | 458 kts | 272° |
| 2026-05-07 04:03 | 41.86621 | 100.56226 | 34316 ft | 456 kts | 272° |
| 2026-05-07 04:04 | 41.86788 | 100.47710 | 34322 ft | 458 kts | 272° |
| 2026-05-07 04:04 | 41.86949 | 100.39139 | 34302 ft | 458 kts | 272° |
| 2026-05-07 04:05 | 41.87102 | 100.30647 | 34332 ft | 456 kts | 271° |
| 2026-05-07 04:05 | 41.87250 | 100.22078 | 34315 ft | 458 kts | 271° |
| 2026-05-07 04:06 | 41.87391 | 100.13586 | 34316 ft | 454 kts | 271° |
| 2026-05-07 04:06 | 41.87525 | 100.05099 | 34322 ft | 458 kts | 271° |
| 2026-05-07 04:07 | 41.87653 | 99.96597 | 34310 ft | 456 kts | 271° |
| 2026-05-07 04:07 | 41.87775 | 99.88077 | 34323 ft | 462 kts | 271° |
| 2026-05-07 04:08 | 41.87892 | 99.79478 | 34311 ft | 457 kts | 271° |
| 2026-05-07 04:08 | 41.88001 | 99.71011 | 34312 ft | 458 kts | 271° |
| 2026-05-07 04:09 | 41.88105 | 99.62395 | 34340 ft | 458 kts | 271° |
| 2026-05-07 04:09 | 41.88202 | 99.53863 | 34335 ft | 458 kts | 271° |
| 2026-05-07 04:10 | 41.88294 | 99.45246 | 34336 ft | 456 kts | 271° |
| 2026-05-07 04:10 | 41.88377 | 99.36736 | 34343 ft | 460 kts | 271° |
| 2026-05-07 04:11 | 41.88456 | 99.28127 | 34350 ft | 456 kts | 270° |
| 2026-05-07 04:11 | 41.88527 | 99.19675 | 34370 ft | 456 kts | 270° |
| 2026-05-07 04:12 | 41.88592 | 99.11217 | 34373 ft | 458 kts | 270° |
| 2026-05-07 04:12 | 41.88652 | 99.02584 | 34359 ft | 462 kts | 270° |
| 2026-05-07 04:13 | 41.88704 | 98.94044 | 34371 ft | 460 kts | 270° |
| 2026-05-07 04:13 | 41.88751 | 98.85484 | 34397 ft | 456 kts | 270° |
| 2026-05-07 04:14 | 41.88791 | 98.76807 | 34379 ft | 460 kts | 270° |
| 2026-05-07 04:14 | 41.88825 | 98.68275 | 34399 ft | 460 kts | 270° |
| 2026-05-07 04:15 | 41.88852 | 98.59686 | 34396 ft | 455 kts | 270° |
| 2026-05-07 04:15 | 41.88873 | 98.51135 | 34406 ft | 457 kts | 270° |
| 2026-05-07 04:16 | 41.88888 | 98.42595 | 34397 ft | 459 kts | 270° |
| 2026-05-07 04:16 | 41.88896 | 98.34003 | 34401 ft | 460 kts | 270° |
| 2026-05-07 04:17 | 41.88898 | 98.25491 | 34409 ft | 458 kts | 270° |
| 2026-05-07 04:17 | 41.88893 | 98.16970 | 34409 ft | 460 kts | 270° |
| 2026-05-07 04:18 | 41.88883 | 98.08376 | 34428 ft | 460 kts | 270° |
| 2026-05-07 04:18 | 41.88866 | 97.99777 | 34424 ft | 461 kts | 270° |
| 2026-05-07 04:19 | 41.88842 | 97.91205 | 34406 ft | 460 kts | 270° |
| 2026-05-07 04:19 | 41.88812 | 97.82677 | 34445 ft | 457 kts | 270° |
| 2026-05-07 04:20 | 41.88776 | 97.74103 | 34423 ft | 459 kts | 270° |
| 2026-05-07 04:20 | 41.88733 | 97.65565 | 34424 ft | 461 kts | 270° |
| 2026-05-07 04:21 | 41.88657 | 97.52655 | 34424 ft | 460 kts | 270° |
| 2026-05-07 04:21 | 41.88599 | 97.44081 | 34438 ft | 460 kts | 269° |
| 2026-05-07 04:22 | 41.88533 | 97.35501 | 34415 ft | 459 kts | 270° |
| 2026-05-07 04:22 | 41.88462 | 97.26980 | 34451 ft | 458 kts | 269° |
| 2026-05-07 04:23 | 41.88385 | 97.18418 | 34446 ft | 458 kts | 269° |
| 2026-05-07 04:23 | 41.88302 | 97.09909 | 34438 ft | 457 kts | 269° |
| 2026-05-07 04:24 | 41.88211 | 97.01356 | 34439 ft | 460 kts | 269° |
| 2026-05-07 04:24 | 41.88115 | 96.92806 | 34440 ft | 459 kts | 269° |
| 2026-05-07 04:25 | 41.88012 | 96.84271 | 34446 ft | 459 kts | 269° |
| 2026-05-07 04:25 | 41.87903 | 96.75745 | 34453 ft | 460 kts | 269° |
| 2026-05-07 04:26 | 41.87788 | 96.67176 | 34458 ft | 460 kts | 269° |
| 2026-05-07 04:26 | 41.87666 | 96.58636 | 34451 ft | 459 kts | 269° |
| 2026-05-07 04:27 | 41.87538 | 96.50122 | 34467 ft | 460 kts | 269° |
| 2026-05-07 04:27 | 41.87403 | 96.41576 | 34478 ft | 459 kts | 269° |
| 2026-05-07 04:28 | 41.87261 | 96.32941 | 34483 ft | 460 kts | 268° |
| 2026-05-07 04:28 | 41.87113 | 96.24358 | 34476 ft | 463 kts | 268° |
| 2026-05-07 04:29 | 41.87052 | 96.15793 | 34492 ft | 460 kts | 269° |
| 2026-05-07 04:29 | 41.87012 | 96.07222 | 34492 ft | 461 kts | 269° |
| 2026-05-07 04:30 | 41.86962 | 95.98634 | 34496 ft | 461 kts | 269° |
| 2026-05-07 04:30 | 41.86903 | 95.89992 | 34492 ft | 464 kts | 269° |
| 2026-05-07 04:31 | 41.86836 | 95.81416 | 34480 ft | 463 kts | 269° |
| 2026-05-07 04:31 | 41.86763 | 95.72800 | 34483 ft | 462 kts | 269° |
| 2026-05-07 04:32 | 41.86682 | 95.64178 | 34473 ft | 463 kts | 269° |
| 2026-05-07 04:32 | 41.86594 | 95.55498 | 34466 ft | 465 kts | 269° |
| 2026-05-07 04:33 | 41.86500 | 95.46812 | 34452 ft | 465 kts | 269° |
| 2026-05-07 04:33 | 41.86400 | 95.38150 | 34447 ft | 466 kts | 269° |
| 2026-05-07 04:34 | 41.86336 | 95.29512 | 34424 ft | 468 kts | 273° |
| 2026-05-07 04:34 | 41.87560 | 95.20998 | 34428 ft | 468 kts | 289° |
| 2026-05-07 04:35 | 41.90586 | 95.13241 | 34423 ft | 470 kts | 305° |
| 2026-05-07 04:35 | 41.94861 | 95.06540 | 34396 ft | 476 kts | 310° |
| 2026-05-07 04:36 | 41.99227 | 94.99940 | 34384 ft | 474 kts | 310° |
| 2026-05-07 04:36 | 42.03601 | 94.93282 | 34367 ft | 473 kts | 310° |
| 2026-05-07 04:37 | 42.07949 | 94.86626 | 34365 ft | 475 kts | 310° |
| 2026-05-07 04:37 | 42.12336 | 94.79887 | 34352 ft | 476 kts | 311° |
| 2026-05-07 04:38 | 42.16682 | 94.73189 | 34352 ft | 476 kts | 311° |
| 2026-05-07 04:38 | 42.21027 | 94.66475 | 34340 ft | 476 kts | 311° |
| 2026-05-07 04:39 | 42.25366 | 94.59754 | 34342 ft | 476 kts | 311° |
| 2026-05-07 04:39 | 42.29677 | 94.53059 | 34349 ft | 476 kts | 311° |
| 2026-05-07 04:40 | 42.34060 | 94.46238 | 34350 ft | 475 kts | 311° |
| 2026-05-07 04:40 | 42.38431 | 94.39420 | 34334 ft | 476 kts | 311° |
| 2026-05-07 04:41 | 42.42753 | 94.32661 | 34340 ft | 475 kts | 311° |
| 2026-05-07 04:41 | 42.47101 | 94.25846 | 34341 ft | 477 kts | 311° |
| 2026-05-07 04:42 | 42.51411 | 94.19074 | 34338 ft | 478 kts | 311° |
| 2026-05-07 04:42 | 42.55730 | 94.12274 | 34340 ft | 477 kts | 311° |
| 2026-05-07 04:43 | 42.60067 | 94.05429 | 34336 ft | 478 kts | 311° |
| 2026-05-07 04:43 | 42.64353 | 93.98649 | 34327 ft | 477 kts | 311° |
| 2026-05-07 04:44 | 42.68679 | 93.91788 | 34345 ft | 477 kts | 311° |
| 2026-05-07 04:44 | 42.72980 | 93.84955 | 34337 ft | 477 kts | 311° |
| 2026-05-07 04:45 | 42.77310 | 93.78056 | 34337 ft | 477 kts | 311° |
| 2026-05-07 04:45 | 42.81651 | 93.71124 | 34347 ft | 478 kts | 311° |
| 2026-05-07 04:46 | 42.85173 | 93.63506 | 34331 ft | 480 kts | 295° |
| 2026-05-07 04:46 | 42.87664 | 93.55096 | 34331 ft | 481 kts | 293° |
| 2026-05-07 04:47 | 42.90099 | 93.46647 | 34316 ft | 482 kts | 293° |
| 2026-05-07 04:47 | 42.92541 | 93.38110 | 34310 ft | 482 kts | 292° |
| 2026-05-07 04:48 | 42.94928 | 93.29720 | 33988 ft | 471 kts | 292° |
| 2026-05-07 04:48 | 42.96094 | 93.25609 | 33592 ft | 465 kts | 292° |
| 2026-05-07 04:48 | 42.97248 | 93.21529 | 33189 ft | 459 kts | 292° |
| 2026-05-07 04:49 | 42.98396 | 93.17466 | 32784 ft | 453 kts | 292° |
| 2026-05-07 04:49 | 42.99517 | 93.13493 | 32383 ft | 450 kts | 292° |
| 2026-05-07 04:49 | 43.00642 | 93.09500 | 31979 ft | 450 kts | 292° |
| 2026-05-07 04:49 | 43.01742 | 93.05587 | 31582 ft | 447 kts | 292° |
| 2026-05-07 04:50 | 43.02854 | 93.01623 | 31176 ft | 444 kts | 293° |
| 2026-05-07 04:50 | 43.03942 | 92.97741 | 30776 ft | 440 kts | 293° |
| 2026-05-07 04:50 | 43.05029 | 92.93855 | 30378 ft | 436 kts | 293° |
| 2026-05-07 04:50 | 43.06102 | 92.90010 | 29979 ft | 434 kts | 293° |
| 2026-05-07 04:51 | 43.07179 | 92.86149 | 29575 ft | 432 kts | 293° |
| 2026-05-07 04:51 | 43.08239 | 92.82343 | 29176 ft | 429 kts | 293° |
| 2026-05-07 04:51 | 43.09296 | 92.78541 | 28776 ft | 426 kts | 293° |
| 2026-05-07 04:51 | 43.10339 | 92.74782 | 28380 ft | 424 kts | 293° |
| 2026-05-07 04:52 | 43.11369 | 92.71066 | 27994 ft | 421 kts | 293° |
| 2026-05-07 04:52 | 43.12398 | 92.67348 | 27606 ft | 419 kts | 292° |
| 2026-05-07 04:52 | 43.13432 | 92.63604 | 27216 ft | 416 kts | 293° |
| 2026-05-07 04:52 | 43.14440 | 92.59950 | 26833 ft | 413 kts | 292° |
| 2026-05-07 04:53 | 43.15448 | 92.56290 | 26446 ft | 411 kts | 292° |
| 2026-05-07 04:53 | 43.16443 | 92.52664 | 26062 ft | 408 kts | 292° |
| 2026-05-07 04:53 | 43.17441 | 92.49020 | 25672 ft | 405 kts | 292° |
| 2026-05-07 04:53 | 43.18419 | 92.45446 | 25286 ft | 403 kts | 292° |
| 2026-05-07 04:54 | 43.19400 | 92.41856 | 24900 ft | 401 kts | 292° |
| 2026-05-07 04:54 | 43.20368 | 92.38308 | 24490 ft | 398 kts | 292° |
| 2026-05-07 04:54 | 43.21321 | 92.34812 | 24093 ft | 395 kts | 292° |
| 2026-05-07 04:54 | 43.22279 | 92.31288 | 23683 ft | 394 kts | 292° |
| 2026-05-07 04:55 | 43.23227 | 92.27799 | 23281 ft | 391 kts | 292° |
| 2026-05-07 04:55 | 43.24175 | 92.24307 | 22881 ft | 389 kts | 291° |
| 2026-05-07 04:55 | 43.25112 | 92.20847 | 22484 ft | 386 kts | 292° |
| 2026-05-07 04:55 | 43.26042 | 92.17409 | 22088 ft | 383 kts | 292° |
| 2026-05-07 04:56 | 43.26953 | 92.14033 | 21691 ft | 381 kts | 291° |
| 2026-05-07 04:56 | 43.27870 | 92.10635 | 21310 ft | 378 kts | 291° |
| 2026-05-07 04:56 | 43.28773 | 92.07284 | 20967 ft | 372 kts | 292° |
| 2026-05-07 04:56 | 43.29650 | 92.04022 | 20726 ft | 363 kts | 292° |
| 2026-05-07 04:57 | 43.30518 | 92.00791 | 20565 ft | 357 kts | 292° |
| 2026-05-07 04:57 | 43.31382 | 91.97574 | 20434 ft | 360 kts | 292° |
| 2026-05-07 04:57 | 43.32269 | 91.94405 | 20278 ft | 359 kts | 293° |
| 2026-05-07 04:57 | 43.33183 | 91.91210 | 20123 ft | 358 kts | 293° |
| 2026-05-07 04:58 | 43.34085 | 91.88049 | 19965 ft | 357 kts | 293° |
| 2026-05-07 04:58 | 43.34988 | 91.84872 | 19806 ft | 356 kts | 292° |
| 2026-05-07 04:58 | 43.35887 | 91.81699 | 19653 ft | 356 kts | 293° |
| 2026-05-07 04:58 | 43.36782 | 91.78536 | 19490 ft | 355 kts | 292° |
| 2026-05-07 04:59 | 43.37663 | 91.75415 | 19327 ft | 354 kts | 293° |
| 2026-05-07 04:59 | 43.38553 | 91.72259 | 19166 ft | 353 kts | 293° |
| 2026-05-07 04:59 | 43.39434 | 91.69131 | 19021 ft | 352 kts | 292° |
| 2026-05-07 04:59 | 43.40306 | 91.66026 | 18878 ft | 352 kts | 292° |
| 2026-05-07 05:00 | 43.41192 | 91.62874 | 18723 ft | 351 kts | 293° |
| 2026-05-07 05:00 | 43.42059 | 91.59779 | 18575 ft | 350 kts | 293° |
| 2026-05-07 05:00 | 43.42936 | 91.56651 | 18422 ft | 350 kts | 292° |
| 2026-05-07 05:00 | 43.43799 | 91.53564 | 18267 ft | 348 kts | 293° |
| 2026-05-07 05:01 | 43.44686 | 91.50463 | 18115 ft | 347 kts | 294° |
| 2026-05-07 05:01 | 43.45603 | 91.47377 | 17964 ft | 346 kts | 294° |
| 2026-05-07 05:01 | 43.46502 | 91.44346 | 17822 ft | 346 kts | 294° |
| 2026-05-07 05:01 | 43.47411 | 91.41271 | 17674 ft | 345 kts | 294° |
| 2026-05-07 05:02 | 43.48300 | 91.38251 | 17531 ft | 344 kts | 294° |
| 2026-05-07 05:02 | 43.49198 | 91.35197 | 17402 ft | 344 kts | 294° |
| 2026-05-07 05:02 | 43.50096 | 91.32137 | 17263 ft | 344 kts | 293° |
| 2026-05-07 05:02 | 43.50982 | 91.29115 | 17121 ft | 343 kts | 293° |
| 2026-05-07 05:03 | 43.51876 | 91.26057 | 16980 ft | 342 kts | 293° |
| 2026-05-07 05:03 | 43.52755 | 91.23049 | 16843 ft | 341 kts | 293° |
| 2026-05-07 05:03 | 43.53635 | 91.20037 | 16704 ft | 341 kts | 293° |
| 2026-05-07 05:03 | 43.54518 | 91.17007 | 16561 ft | 340 kts | 293° |
| 2026-05-07 05:04 | 43.55402 | 91.13974 | 16419 ft | 339 kts | 293° |
| 2026-05-07 05:04 | 43.56267 | 91.10995 | 16277 ft | 337 kts | 293° |
| 2026-05-07 05:04 | 43.57147 | 91.07970 | 16134 ft | 337 kts | 293° |
| 2026-05-07 05:04 | 43.58009 | 91.04997 | 15990 ft | 336 kts | 293° |
| 2026-05-07 05:05 | 43.58878 | 91.01999 | 15845 ft | 335 kts | 292° |
| 2026-05-07 05:05 | 43.59731 | 90.99052 | 15701 ft | 335 kts | 293° |
| 2026-05-07 05:05 | 43.60598 | 90.96056 | 15553 ft | 334 kts | 293° |
| 2026-05-07 05:05 | 43.61460 | 90.93071 | 15404 ft | 334 kts | 292° |
| 2026-05-07 05:06 | 43.62308 | 90.90129 | 15256 ft | 333 kts | 293° |
| 2026-05-07 05:06 | 43.63167 | 90.87148 | 15107 ft | 332 kts | 293° |
| 2026-05-07 05:06 | 43.64012 | 90.84213 | 14959 ft | 332 kts | 292° |
| 2026-05-07 05:06 | 43.64864 | 90.81251 | 14810 ft | 331 kts | 292° |
| 2026-05-07 05:07 | 43.65705 | 90.78319 | 14661 ft | 330 kts | 292° |
| 2026-05-07 05:07 | 43.66550 | 90.75372 | 14510 ft | 329 kts | 293° |
| 2026-05-07 05:07 | 43.67380 | 90.72474 | 14364 ft | 328 kts | 292° |
| 2026-05-07 05:07 | 43.68221 | 90.69537 | 14218 ft | 328 kts | 292° |
| 2026-05-07 05:08 | 43.69058 | 90.66606 | 14069 ft | 327 kts | 292° |
| 2026-05-07 05:08 | 43.69885 | 90.63708 | 13921 ft | 326 kts | 293° |
| 2026-05-07 05:08 | 43.70723 | 90.60783 | 13770 ft | 326 kts | 293° |
| 2026-05-07 05:08 | 43.71552 | 90.57905 | 13619 ft | 325 kts | 293° |
| 2026-05-07 05:09 | 43.72389 | 90.54997 | 13466 ft | 324 kts | 293° |
| 2026-05-07 05:09 | 43.73210 | 90.52137 | 13315 ft | 324 kts | 292° |
| 2026-05-07 05:09 | 43.74043 | 90.49234 | 13162 ft | 323 kts | 293° |
| 2026-05-07 05:09 | 43.74871 | 90.46342 | 13006 ft | 322 kts | 292° |
| 2026-05-07 05:10 | 43.75684 | 90.43498 | 12860 ft | 321 kts | 292° |
| 2026-05-07 05:10 | 43.76507 | 90.40619 | 12714 ft | 321 kts | 292° |
| 2026-05-07 05:10 | 43.77322 | 90.37762 | 12567 ft | 320 kts | 292° |
| 2026-05-07 05:10 | 43.78141 | 90.34890 | 12419 ft | 320 kts | 292° |
| 2026-05-07 05:11 | 43.78944 | 90.32069 | 12275 ft | 319 kts | 292° |
| 2026-05-07 05:11 | 43.79757 | 90.29210 | 12128 ft | 318 kts | 292° |
| 2026-05-07 05:11 | 43.80566 | 90.26360 | 11981 ft | 317 kts | 292° |
| 2026-05-07 05:11 | 43.81360 | 90.23562 | 11832 ft | 316 kts | 292° |
| 2026-05-07 05:12 | 43.82165 | 90.20723 | 11676 ft | 316 kts | 291° |
| 2026-05-07 05:12 | 43.82967 | 90.17891 | 11519 ft | 312 kts | 291° |
| 2026-05-07 05:12 | 43.83746 | 90.15133 | 11361 ft | 302 kts | 291° |
| 2026-05-07 05:12 | 43.84494 | 90.12488 | 11209 ft | 293 kts | 291° |
| 2026-05-07 05:13 | 43.85232 | 90.09872 | 11059 ft | 291 kts | 291° |
| 2026-05-07 05:13 | 43.85959 | 90.07291 | 10907 ft | 290 kts | 292° |
| 2026-05-07 05:13 | 43.86695 | 90.04678 | 10756 ft | 290 kts | 291° |
| 2026-05-07 05:13 | 43.87422 | 90.02094 | 10606 ft | 289 kts | 291° |
| 2026-05-07 05:14 | 43.88156 | 89.99482 | 10454 ft | 288 kts | 291° |
| 2026-05-07 05:14 | 43.88879 | 89.96908 | 10310 ft | 288 kts | 291° |
| 2026-05-07 05:14 | 43.89595 | 89.94351 | 10165 ft | 286 kts | 291° |
| 2026-05-07 05:14 | 43.90319 | 89.91769 | 10018 ft | 287 kts | 291° |
| 2026-05-07 05:15 | 43.91033 | 89.89216 | 9873 ft | 286 kts | 291° |
| 2026-05-07 05:15 | 43.91750 | 89.86650 | 9726 ft | 284 kts | 291° |
| 2026-05-07 05:15 | 43.92467 | 89.84085 | 9578 ft | 284 kts | 291° |
| 2026-05-07 05:15 | 43.93169 | 89.81567 | 9434 ft | 283 kts | 291° |
| 2026-05-07 05:16 | 43.93884 | 89.78999 | 9285 ft | 283 kts | 291° |
| 2026-05-07 05:16 | 43.94588 | 89.76473 | 9141 ft | 284 kts | 291° |
| 2026-05-07 05:16 | 43.95300 | 89.73913 | 8993 ft | 284 kts | 291° |
| 2026-05-07 05:16 | 43.96009 | 89.71361 | 8846 ft | 284 kts | 291° |
| 2026-05-07 05:17 | 43.96719 | 89.68802 | 8697 ft | 284 kts | 291° |
| 2026-05-07 05:17 | 43.97426 | 89.66251 | 8548 ft | 282 kts | 291° |
| 2026-05-07 05:17 | 43.98121 | 89.63734 | 8400 ft | 283 kts | 290° |
| 2026-05-07 05:17 | 43.98716 | 89.61143 | 8252 ft | 282 kts | 285° |
| 2026-05-07 05:18 | 43.99138 | 89.58464 | 8102 ft | 283 kts | 280° |
| 2026-05-07 05:18 | 43.99457 | 89.55763 | 8000 ft | 281 kts | 280° |
| 2026-05-07 05:18 | 43.99770 | 89.53108 | 7989 ft | 282 kts | 279° |
| 2026-05-07 05:18 | 44.00086 | 89.50403 | 7984 ft | 281 kts | 280° |
| 2026-05-07 05:19 | 44.00394 | 89.47746 | 7986 ft | 282 kts | 280° |
| 2026-05-07 05:19 | 44.00706 | 89.45045 | 7985 ft | 282 kts | 280° |
| 2026-05-07 05:19 | 44.01014 | 89.42378 | 7984 ft | 282 kts | 280° |
| 2026-05-07 05:19 | 44.01324 | 89.39679 | 7982 ft | 282 kts | 279° |
| 2026-05-07 05:20 | 44.01632 | 89.37002 | 7978 ft | 283 kts | 280° |
| 2026-05-07 05:20 | 44.01944 | 89.34281 | 7982 ft | 283 kts | 279° |
| 2026-05-07 05:20 | 44.02249 | 89.31607 | 7980 ft | 283 kts | 279° |
| 2026-05-07 05:20 | 44.02558 | 89.28904 | 7981 ft | 284 kts | 279° |
| 2026-05-07 05:21 | 44.02867 | 89.26182 | 7977 ft | 283 kts | 279° |
| 2026-05-07 05:21 | 44.03476 | 89.20824 | 7978 ft | 283 kts | 279° |
| 2026-05-07 05:21 | 44.03783 | 89.18099 | 7977 ft | 283 kts | 279° |
| 2026-05-07 05:22 | 44.04084 | 89.15435 | 7980 ft | 282 kts | 279° |
| 2026-05-07 05:22 | 44.04388 | 89.12741 | 7985 ft | 283 kts | 279° |
| 2026-05-07 05:22 | 44.04692 | 89.10031 | 7984 ft | 282 kts | 279° |
| 2026-05-07 05:22 | 44.04994 | 89.07341 | 7986 ft | 283 kts | 279° |
| 2026-05-07 05:23 | 44.05295 | 89.04650 | 7987 ft | 283 kts | 279° |
| 2026-05-07 05:23 | 44.05597 | 89.01944 | 7985 ft | 283 kts | 279° |
| 2026-05-07 05:23 | 44.05897 | 88.99246 | 7987 ft | 283 kts | 279° |
| 2026-05-07 05:23 | 44.06198 | 88.96543 | 7994 ft | 283 kts | 279° |
| 2026-05-07 05:24 | 44.06496 | 88.93853 | 8000 ft | 284 kts | 279° |
| 2026-05-07 05:24 | 44.06796 | 88.91141 | 8005 ft | 283 kts | 279° |
| 2026-05-07 05:24 | 44.07094 | 88.88441 | 8004 ft | 283 kts | 279° |
| 2026-05-07 05:24 | 44.07393 | 88.85728 | 8006 ft | 284 kts | 279° |
| 2026-05-07 05:25 | 44.07694 | 88.83025 | 8010 ft | 283 kts | 279° |
| 2026-05-07 05:25 | 44.08014 | 88.80321 | 8013 ft | 284 kts | 280° |
| 2026-05-07 05:25 | 44.08331 | 88.77647 | 8015 ft | 284 kts | 280° |
| 2026-05-07 05:25 | 44.08649 | 88.74940 | 8019 ft | 284 kts | 279° |
| 2026-05-07 05:26 | 44.08965 | 88.72233 | 8018 ft | 284 kts | 279° |
| 2026-05-07 05:26 | 44.09280 | 88.69530 | 8019 ft | 284 kts | 279° |
| 2026-05-07 05:26 | 44.09595 | 88.66821 | 8018 ft | 283 kts | 279° |
| 2026-05-07 05:26 | 44.09906 | 88.64136 | 8020 ft | 284 kts | 279° |
| 2026-05-07 05:27 | 44.10223 | 88.61401 | 8020 ft | 283 kts | 279° |
| 2026-05-07 05:27 | 44.10534 | 88.58708 | 8019 ft | 283 kts | 279° |
| 2026-05-07 05:27 | 44.10843 | 88.56030 | 8008 ft | 284 kts | 279° |
| 2026-05-07 05:27 | 44.11156 | 88.53307 | 7848 ft | 285 kts | 279° |
| 2026-05-07 05:28 | 44.11470 | 88.50575 | 7732 ft | 284 kts | 279° |
| 2026-05-07 05:28 | 44.11780 | 88.47865 | 7642 ft | 284 kts | 279° |
| 2026-05-07 05:28 | 44.12087 | 88.45180 | 7552 ft | 284 kts | 279° |
| 2026-05-07 05:28 | 44.12397 | 88.42456 | 7459 ft | 284 kts | 279° |
| 2026-05-07 05:29 | 44.12707 | 88.39733 | 7368 ft | 283 kts | 279° |
| 2026-05-07 05:29 | 44.13013 | 88.37041 | 7277 ft | 284 kts | 279° |
| 2026-05-07 05:29 | 44.13320 | 88.34325 | 7185 ft | 284 kts | 279° |
| 2026-05-07 05:29 | 44.13625 | 88.31634 | 7094 ft | 283 kts | 279° |
| 2026-05-07 05:30 | 44.13931 | 88.28913 | 7000 ft | 284 kts | 279° |
| 2026-05-07 05:30 | 44.14236 | 88.26206 | 6907 ft | 284 kts | 279° |
| 2026-05-07 05:30 | 44.14540 | 88.23496 | 6807 ft | 283 kts | 279° |
| 2026-05-07 05:30 | 44.14843 | 88.20789 | 6701 ft | 283 kts | 279° |
| 2026-05-07 05:31 | 44.15142 | 88.18117 | 6593 ft | 282 kts | 279° |
| 2026-05-07 05:31 | 44.15443 | 88.15414 | 6485 ft | 279 kts | 279° |
| 2026-05-07 05:31 | 44.15738 | 88.12772 | 6376 ft | 272 kts | 279° |
| 2026-05-07 05:31 | 44.16022 | 88.10209 | 6272 ft | 270 kts | 279° |
| 2026-05-07 05:32 | 44.16310 | 88.07614 | 6168 ft | 270 kts | 279° |
| 2026-05-07 05:32 | 44.16593 | 88.05057 | 6064 ft | 269 kts | 279° |
| 2026-05-07 05:32 | 44.16877 | 88.02476 | 5961 ft | 269 kts | 279° |
| 2026-05-07 05:32 | 44.16908 | 87.99894 | 5843 ft | 267 kts | 257° |
| 2026-05-07 05:33 | 44.16173 | 87.97578 | 5731 ft | 258 kts | 231° |
| 2026-05-07 05:33 | 44.14959 | 87.95815 | 5643 ft | 253 kts | 221° |
| 2026-05-07 05:33 | 44.13658 | 87.94236 | 5548 ft | 244 kts | 219° |
| 2026-05-07 05:33 | 44.12380 | 87.92771 | 5453 ft | 236 kts | 219° |
| 2026-05-07 05:34 | 44.11115 | 87.91346 | 5362 ft | 233 kts | 218° |
| 2026-05-07 05:34 | 44.09843 | 87.89920 | 5270 ft | 232 kts | 218° |
| 2026-05-07 05:34 | 44.08515 | 87.88670 | 5162 ft | 230 kts | 199° |
| 2026-05-07 05:34 | 44.06960 | 87.88305 | 5075 ft | 230 kts | 180° |
| 2026-05-07 05:35 | 44.05352 | 87.88341 | 4997 ft | 229 kts | 176° |
| 2026-05-07 05:35 | 44.03754 | 87.88419 | 4987 ft | 230 kts | 184° |
| 2026-05-07 05:35 | 44.02257 | 87.87775 | 4971 ft | 223 kts | 214° |
| 2026-05-07 05:35 | 44.01253 | 87.86262 | 4969 ft | 210 kts | 243° |
| 2026-05-07 05:36 | 44.00692 | 87.84414 | 4978 ft | 210 kts | 251° |
| 2026-05-07 05:36 | 44.00229 | 87.82499 | 4973 ft | 209 kts | 252° |
| 2026-05-07 05:36 | 43.99791 | 87.80576 | 4968 ft | 209 kts | 253° |
| 2026-05-07 05:36 | 43.99373 | 87.78648 | 4965 ft | 208 kts | 254° |
| 2026-05-07 05:37 | 43.98972 | 87.76736 | 4963 ft | 202 kts | 255° |
| 2026-05-07 05:37 | 43.98603 | 87.74949 | 4960 ft | 188 kts | 255° |
| 2026-05-07 05:37 | 43.98243 | 87.73209 | 4968 ft | 185 kts | 254° |
| 2026-05-07 05:37 | 43.97895 | 87.71538 | 4972 ft | 178 kts | 255° |
| 2026-05-07 05:38 | 43.97552 | 87.69902 | 4958 ft | 174 kts | 254° |
| 2026-05-07 05:38 | 43.97208 | 87.68269 | 4782 ft | 175 kts | 254° |
| 2026-05-07 05:38 | 43.96872 | 87.66678 | 4574 ft | 173 kts | 254° |
| 2026-05-07 05:38 | 43.96532 | 87.65065 | 4359 ft | 174 kts | 254° |
| 2026-05-07 05:39 | 43.96193 | 87.63470 | 4149 ft | 173 kts | 254° |
| 2026-05-07 05:39 | 43.95855 | 87.61867 | 3931 ft | 173 kts | 255° |
| 2026-05-07 05:39 | 43.95518 | 87.60275 | 3710 ft | 173 kts | 254° |
| 2026-05-07 05:39 | 43.95180 | 87.58682 | 3492 ft | 172 kts | 255° |
| 2026-05-07 05:40 | 43.94847 | 87.57082 | 3284 ft | 172 kts | 253° |
| 2026-05-07 05:40 | 43.94501 | 87.55496 | 3026 ft | 171 kts | 255° |
| 2026-05-07 05:40 | 43.94172 | 87.53925 | 2814 ft | 169 kts | 254° |
| 2026-05-07 05:40 | 43.93831 | 87.52368 | 2552 ft | 169 kts | 256° |
| 2026-05-07 05:41 | 43.93510 | 87.50823 | 2405 ft | 168 kts | 255° |
| 2026-05-07 05:41 | 43.93176 | 87.49246 | 2222 ft | 169 kts | 255° |
| 2026-05-07 05:41 | 43.92866 | 87.47726 | 2154 ft | 155 kts | 254° |
| 2026-05-07 05:41 | 43.92588 | 87.46492 | 2147 ft | 110 kts | 254° |
| 2026-05-07 05:42 | 43.92426 | 87.45721 | 2148 ft | 55 kts | 253° |
| 2026-05-07 05:42 | 43.92382 | 87.45528 | 2148 ft | 3 kts | 248° |
| 2026-05-07 05:42 | 43.92369 | 87.45498 | 2148 ft | 4 kts | 232° |
| 2026-05-07 05:42 | 43.92343 | 87.45470 | 2148 ft | 5 kts | 204° |
| 2026-05-07 05:43 | 43.92303 | 87.45468 | 2148 ft | 6 kts | 164° |
| 2026-05-07 05:43 | 43.92255 | 87.45489 | 2148 ft | 7 kts | 163° |
| 2026-05-07 05:43 | 43.92201 | 87.45511 | 2148 ft | 8 kts | 164° |
| 2026-05-07 05:43 | 43.92142 | 87.45535 | 2149 ft | 9 kts | 163° |
| 2026-05-07 05:44 | 43.92079 | 87.45561 | 2149 ft | 9 kts | 163° |
| 2026-05-07 05:44 | 43.92012 | 87.45589 | 2149 ft | 10 kts | 163° |
| 2026-05-07 05:44 | 43.91941 | 87.45620 | 2149 ft | 10 kts | 163° |
| 2026-05-07 05:44 | 43.91889 | 87.45662 | 2149 ft | 8 kts | 115° |
| 2026-05-07 05:45 | 43.91895 | 87.45747 | 2149 ft | 9 kts | 75° |
| 2026-05-07 05:45 | 43.91914 | 87.45837 | 2149 ft | 9 kts | 74° |
| 2026-05-07 05:45 | 43.91934 | 87.45930 | 2149 ft | 10 kts | 74° |
| 2026-05-07 05:45 | 43.91955 | 87.46026 | 2149 ft | 10 kts | 73° |
| 2026-05-07 05:46 | 43.91976 | 87.46125 | 2149 ft | 10 kts | 74° |
| 2026-05-07 05:46 | 43.91998 | 87.46228 | 2149 ft | 11 kts | 74° |
| 2026-05-07 05:46 | 43.92020 | 87.46332 | 2149 ft | 11 kts | 73° |
| 2026-05-07 05:46 | 43.92042 | 87.46438 | 2149 ft | 11 kts | 74° |
| 2026-05-07 05:47 | 43.92065 | 87.46545 | 2149 ft | 11 kts | 74° |
| 2026-05-07 05:47 | 43.92088 | 87.46654 | 2149 ft | 11 kts | 74° |
| 2026-05-07 05:47 | 43.92111 | 87.46764 | 2149 ft | 11 kts | 74° |
| 2026-05-07 05:47 | 43.92135 | 87.46873 | 2149 ft | 11 kts | 73° |
| 2026-05-07 05:48 | 43.92159 | 87.46983 | 2148 ft | 12 kts | 74° |
| 2026-05-07 05:48 | 43.92182 | 87.47097 | 2148 ft | 12 kts | 74° |
| 2026-05-07 05:48 | 43.92207 | 87.47211 | 2148 ft | 12 kts | 73° |
| 2026-05-07 05:48 | 43.92231 | 87.47324 | 2148 ft | 12 kts | 74° |
| 2026-05-07 05:49 | 43.92255 | 87.47439 | 2148 ft | 12 kts | 73° |
| 2026-05-07 05:49 | 43.92281 | 87.47555 | 2148 ft | 12 kts | 74° |
| 2026-05-07 05:49 | 43.92304 | 87.47670 | 2148 ft | 12 kts | 74° |
| 2026-05-07 05:49 | 43.92329 | 87.47785 | 2148 ft | 12 kts | 74° |
| 2026-05-07 05:50 | 43.92353 | 87.47901 | 2148 ft | 12 kts | 74° |
| 2026-05-07 05:50 | 43.92379 | 87.48019 | 2148 ft | 12 kts | 74° |
| 2026-05-07 05:50 | 43.92403 | 87.48135 | 2148 ft | 12 kts | 74° |
| 2026-05-07 05:50 | 43.92428 | 87.48253 | 2148 ft | 12 kts | 73° |
| 2026-05-07 05:51 | 43.92453 | 87.48369 | 2148 ft | 12 kts | 74° |
| 2026-05-07 05:51 | 43.92478 | 87.48486 | 2147 ft | 12 kts | 74° |
| 2026-05-07 05:51 | 43.92498 | 87.48586 | 2147 ft | 7 kts | 85° |
| 2026-05-07 05:51 | 43.92469 | 87.48649 | 2147 ft | 8 kts | 141° |
| 2026-05-07 05:52 | 43.92414 | 87.48682 | 2148 ft | 9 kts | 162° |
| 2026-05-07 05:52 | 43.92352 | 87.48708 | 2148 ft | 9 kts | 163° |
| 2026-05-07 05:52 | 43.92284 | 87.48737 | 2148 ft | 10 kts | 164° |
| 2026-05-07 05:52 | 43.92214 | 87.48765 | 2148 ft | 10 kts | 164° |
| 2026-05-07 05:53 | 43.92140 | 87.48797 | 2148 ft | 11 kts | 163° |
| 2026-05-07 05:53 | 43.92063 | 87.48829 | 2149 ft | 11 kts | 163° |
| 2026-05-07 05:53 | 43.91982 | 87.48862 | 2149 ft | 12 kts | 163° |
| 2026-05-07 05:53 | 43.91899 | 87.48896 | 2149 ft | 12 kts | 164° |
| 2026-05-07 05:54 | 43.91814 | 87.48931 | 2149 ft | 12 kts | 163° |
| 2026-05-07 05:54 | 43.91728 | 87.48966 | 2150 ft | 13 kts | 164° |
| 2026-05-07 05:54 | 43.91639 | 87.49002 | 2150 ft | 13 kts | 163° |
| 2026-05-07 05:54 | 43.91551 | 87.49039 | 2150 ft | 13 kts | 163° |
| 2026-05-07 05:55 | 43.91484 | 87.49067 | 2150 ft | 7 kts | 163° |
| 2026-05-07 05:55 | 43.91443 | 87.49106 | 2150 ft | 7 kts | 112° |
| 2026-05-07 05:55 | 43.91441 | 87.49159 | 2150 ft | 4 kts | 81° |
| 2026-05-07 05:55 | 43.91443 | 87.49206 | 2150 ft | 4 kts | 111° |
| 2026-05-07 05:56 | 43.91428 | 87.49228 | 2150 ft | 3 kts | 146° |
| 2026-05-07 05:56 | 43.91401 | 87.49246 | 2151 ft | 5 kts | 163° |
| 2026-05-07 05:56 | 43.91380 | 87.49255 | 2151 ft | 0 kts | 163° |